createdAt,value
2018-06-19T00:01:06.541Z,0.00
2018-06-19T00:02:06.609Z,0.00
2018-06-19T00:03:59.604Z,0.00
2018-06-19T00:04:59.659Z,0.00
2018-06-19T00:06:52.655Z,0.00
2018-06-19T00:07:52.711Z,0.00
2018-06-19T00:09:45.704Z,0.00
2018-06-19T00:10:45.767Z,0.00
2018-06-19T00:12:38.765Z,0.00
2018-06-19T00:13:38.821Z,0.00
2018-06-19T00:15:31.813Z,0.00
2018-06-19T00:16:31.876Z,0.00
2018-06-19T00:18:24.877Z,0.00
2018-06-19T00:19:24.928Z,0.00
2018-06-19T00:21:17.919Z,0.00
2018-06-19T00:22:17.982Z,0.00
2018-06-19T00:24:10.979Z,0.00
2018-06-19T00:25:11.035Z,0.00
2018-06-19T00:27:04.033Z,0.00
2018-06-19T00:28:04.087Z,0.00
2018-06-19T00:29:57.077Z,0.00
2018-06-19T00:30:57.139Z,0.00
2018-06-19T00:32:50.140Z,0.00
2018-06-19T00:33:50.194Z,0.00
2018-06-19T00:35:43.183Z,0.00
2018-06-19T00:36:43.244Z,0.00
2018-06-19T00:38:36.244Z,0.00
2018-06-19T00:39:36.296Z,0.00
2018-06-19T00:41:29.285Z,0.00
2018-06-19T00:42:29.349Z,0.00
2018-06-19T00:44:22.856Z,0.00
2018-06-19T00:45:22.912Z,0.00
2018-06-19T00:47:15.907Z,0.00
2018-06-19T00:48:15.965Z,0.00
2018-06-19T00:50:08.960Z,0.00
2018-06-19T00:51:09.021Z,0.00
2018-06-19T00:53:02.018Z,0.00
2018-06-19T00:54:02.082Z,0.00
2018-06-19T00:55:55.071Z,0.00
2018-06-19T00:56:55.135Z,0.00
2018-06-19T00:58:48.133Z,0.00
2018-06-19T00:59:48.187Z,0.00
2018-06-19T01:01:41.184Z,0.00
2018-06-19T01:02:41.250Z,0.00
2018-06-19T01:04:34.250Z,0.00
2018-06-19T01:05:34.308Z,0.00
2018-06-19T01:07:27.305Z,0.00
2018-06-19T01:08:27.362Z,0.00
2018-06-19T01:10:20.352Z,0.00
2018-06-19T01:11:20.420Z,0.00
2018-06-19T01:13:13.414Z,0.00
2018-06-19T01:14:13.471Z,0.00
2018-06-19T01:16:06.461Z,0.00
2018-06-19T01:17:06.525Z,0.00
2018-06-19T01:18:59.518Z,0.00
2018-06-19T01:19:59.574Z,0.00
2018-06-19T01:21:52.567Z,0.00
2018-06-19T01:22:52.629Z,0.00
2018-06-19T01:24:45.629Z,0.00
2018-06-19T01:25:45.685Z,0.00
2018-06-19T01:27:38.682Z,0.00
2018-06-19T01:28:38.774Z,0.00
2018-06-19T01:30:31.726Z,0.00
2018-06-19T01:31:31.788Z,0.00
2018-06-19T01:33:24.788Z,0.00
2018-06-19T01:34:24.845Z,0.00
2018-06-19T01:36:17.837Z,0.00
2018-06-19T01:37:17.900Z,0.00
2018-06-19T01:39:10.895Z,0.00
2018-06-19T01:40:10.952Z,0.00
2018-06-19T01:42:03.942Z,0.00
2018-06-19T01:43:04.005Z,0.00
2018-06-19T01:44:57.000Z,0.00
2018-06-19T01:45:57.062Z,0.00
2018-06-19T01:47:50.048Z,0.00
2018-06-19T01:48:50.107Z,0.00
2018-06-19T01:50:43.104Z,0.00
2018-06-19T01:51:43.159Z,0.00
2018-06-19T01:53:36.159Z,0.00
2018-06-19T01:54:36.212Z,0.00
2018-06-19T01:56:29.201Z,0.00
2018-06-19T01:57:29.265Z,0.00
2018-06-19T01:59:22.260Z,0.00
2018-06-19T02:00:22.316Z,0.00
2018-06-19T02:02:15.306Z,0.00
2018-06-19T02:03:15.368Z,0.00
2018-06-19T02:05:08.366Z,0.00
2018-06-19T02:06:08.419Z,0.00
2018-06-19T02:08:01.409Z,0.00
2018-06-19T02:09:01.471Z,0.00
2018-06-19T02:10:54.471Z,0.00
2018-06-19T02:11:54.524Z,0.00
2018-06-19T02:13:47.513Z,0.00
2018-06-19T02:14:47.580Z,0.00
2018-06-19T02:16:40.580Z,0.00
2018-06-19T02:17:40.646Z,0.00
2018-06-19T02:19:33.633Z,0.00
2018-06-19T02:20:33.690Z,0.00
2018-06-19T02:22:26.678Z,0.00
2018-06-19T02:23:26.741Z,0.00
2018-06-19T02:25:19.739Z,0.00
2018-06-19T02:26:19.796Z,0.00
2018-06-19T02:28:12.787Z,0.00
2018-06-19T02:29:12.851Z,0.00
2018-06-19T02:31:05.848Z,0.00
2018-06-19T02:32:05.905Z,0.00
2018-06-19T02:33:58.902Z,0.00
2018-06-19T02:34:58.967Z,0.00
2018-06-19T02:36:51.959Z,0.00
2018-06-19T02:37:52.014Z,0.00
2018-06-19T02:39:45.019Z,0.00
2018-06-19T02:40:45.074Z,0.00
2018-06-19T02:42:38.079Z,0.00
2018-06-19T02:43:38.132Z,0.00
2018-06-19T02:45:31.126Z,0.00
2018-06-19T02:46:31.180Z,0.00
2018-06-19T02:48:24.168Z,0.00
2018-06-19T02:49:24.231Z,0.00
2018-06-19T02:51:17.234Z,0.00
2018-06-19T02:52:17.289Z,0.00
2018-06-19T02:54:10.284Z,0.00
2018-06-19T02:55:10.346Z,0.00
2018-06-19T02:57:03.348Z,0.00
2018-06-19T02:58:03.406Z,0.00
2018-06-19T02:59:56.398Z,0.00
2018-06-19T03:00:56.463Z,0.00
2018-06-19T03:02:49.457Z,0.00
2018-06-19T03:03:49.513Z,0.00
2018-06-19T03:05:42.510Z,0.00
2018-06-19T03:06:42.565Z,0.00
2018-06-19T03:08:35.561Z,0.00
2018-06-19T03:09:35.622Z,0.00
2018-06-19T03:11:28.617Z,0.00
2018-06-19T03:12:28.673Z,0.00
2018-06-19T03:14:21.662Z,0.00
2018-06-19T03:15:21.729Z,0.00
2018-06-19T03:17:14.732Z,0.00
2018-06-19T03:18:14.781Z,0.00
2018-06-19T03:20:07.768Z,0.00
2018-06-19T03:21:07.834Z,0.00
2018-06-19T03:23:00.831Z,5.63
2018-06-19T03:24:00.887Z,5.63
2018-06-19T03:25:53.881Z,5.63
2018-06-19T03:26:53.942Z,5.63
2018-06-19T03:28:46.926Z,5.63
2018-06-19T03:29:46.991Z,5.63
2018-06-19T03:31:39.989Z,5.63
2018-06-19T03:32:40.048Z,5.63
2018-06-19T03:34:33.032Z,5.63
2018-06-19T03:35:33.095Z,5.63
2018-06-19T03:37:26.092Z,5.63
2018-06-19T03:38:26.148Z,11.25
2018-06-19T03:40:19.137Z,11.25
2018-06-19T03:41:19.200Z,5.63
2018-06-19T03:43:12.195Z,11.25
2018-06-19T03:44:12.252Z,11.25
2018-06-19T03:46:05.250Z,16.88
2018-06-19T03:47:05.309Z,11.25
2018-06-19T03:48:58.315Z,16.88
2018-06-19T03:49:58.368Z,16.88
2018-06-19T03:51:51.366Z,22.50
2018-06-19T03:52:51.422Z,22.50
2018-06-19T03:54:44.413Z,22.50
2018-06-19T03:55:44.477Z,22.50
2018-06-19T03:57:37.982Z,22.50
2018-06-19T03:58:38.039Z,28.13
2018-06-19T04:00:31.026Z,33.75
2018-06-19T04:01:31.089Z,33.75
2018-06-19T04:03:24.086Z,33.75
2018-06-19T04:04:24.145Z,33.75
2018-06-19T04:06:17.140Z,33.75
2018-06-19T04:07:17.201Z,33.75
2018-06-19T04:09:10.204Z,22.50
2018-06-19T04:10:10.259Z,22.50
2018-06-19T04:12:03.259Z,28.13
2018-06-19T04:13:03.315Z,28.13
2018-06-19T04:14:56.313Z,33.75
2018-06-19T04:15:56.375Z,39.38
2018-06-19T04:17:49.376Z,50.63
2018-06-19T04:18:49.426Z,50.63
2018-06-19T04:20:42.416Z,50.63
2018-06-19T04:21:42.475Z,50.63
2018-06-19T04:23:35.477Z,67.50
2018-06-19T04:24:35.533Z,61.88
2018-06-19T04:26:28.524Z,50.63
2018-06-19T04:27:28.591Z,45.00
2018-06-19T04:29:21.588Z,45.00
2018-06-19T04:30:21.645Z,56.25
2018-06-19T04:32:14.647Z,61.88
2018-06-19T04:33:14.743Z,61.88
2018-06-19T04:35:07.694Z,73.13
2018-06-19T04:36:07.751Z,73.13
2018-06-19T04:38:00.749Z,67.50
2018-06-19T04:39:00.944Z,67.50
2018-06-19T04:40:53.795Z,84.38
2018-06-19T04:41:53.857Z,95.63
2018-06-19T04:43:46.852Z,95.63
2018-06-19T04:44:46.908Z,95.63
2018-06-19T04:46:39.901Z,95.63
2018-06-19T04:47:39.961Z,95.63
2018-06-19T04:49:32.965Z,106.88
2018-06-19T04:50:33.015Z,106.88
2018-06-19T04:52:26.005Z,101.25
2018-06-19T04:53:26.067Z,101.25
2018-06-19T04:55:19.065Z,95.63
2018-06-19T04:56:19.125Z,90.00
2018-06-19T04:58:12.120Z,90.00
2018-06-19T04:59:12.173Z,90.00
2018-06-19T05:01:05.164Z,90.00
2018-06-19T05:02:05.222Z,90.00
2018-06-19T05:03:58.218Z,90.00
2018-06-19T05:04:58.277Z,95.63
2018-06-19T05:06:51.264Z,95.63
2018-06-19T05:07:51.326Z,101.25
2018-06-19T05:09:44.325Z,101.25
2018-06-19T05:10:44.379Z,95.63
2018-06-19T05:12:37.372Z,90.00
2018-06-19T05:13:37.438Z,106.88
2018-06-19T05:15:30.434Z,106.88
2018-06-19T05:16:30.489Z,106.88
2018-06-19T05:18:23.481Z,118.13
2018-06-19T05:19:23.545Z,129.38
2018-06-19T05:21:16.550Z,140.63
2018-06-19T05:22:16.609Z,151.88
2018-06-19T05:24:09.605Z,140.63
2018-06-19T05:25:09.659Z,151.88
2018-06-19T05:27:02.656Z,180.00
2018-06-19T05:28:02.724Z,202.50
2018-06-19T05:29:55.719Z,191.25
2018-06-19T05:30:55.775Z,191.25
2018-06-19T05:32:48.771Z,174.38
2018-06-19T05:33:48.841Z,168.75
2018-06-19T05:35:41.834Z,180.00
2018-06-19T05:36:41.889Z,185.63
2018-06-19T05:38:34.880Z,180.00
2018-06-19T05:39:34.945Z,185.63
2018-06-19T05:41:27.949Z,196.88
2018-06-19T05:42:28.006Z,185.63
2018-06-19T05:44:21.002Z,174.38
2018-06-19T05:45:21.065Z,168.75
2018-06-19T05:47:14.069Z,157.50
2018-06-19T05:48:14.125Z,174.38
2018-06-19T05:50:07.124Z,163.13
2018-06-19T05:51:07.178Z,174.38
2018-06-19T05:53:00.177Z,163.13
2018-06-19T05:54:00.237Z,163.13
2018-06-19T05:55:53.240Z,157.50
2018-06-19T05:56:53.294Z,151.88
2018-06-19T05:58:46.286Z,129.38
2018-06-19T05:59:46.350Z,151.88
2018-06-19T06:01:39.352Z,157.50
2018-06-19T06:02:39.410Z,174.38
2018-06-19T06:04:32.418Z,163.13
2018-06-19T06:05:32.502Z,157.50
2018-06-19T06:07:25.471Z,174.38
2018-06-19T06:08:25.527Z,180.00
2018-06-19T06:10:18.521Z,191.25
2018-06-19T06:11:18.631Z,225.00
2018-06-19T06:13:11.578Z,236.25
2018-06-19T06:14:11.640Z,230.63
2018-06-19T06:16:04.638Z,258.75
2018-06-19T06:17:04.691Z,275.63
2018-06-19T06:18:57.693Z,270.00
2018-06-19T06:19:57.754Z,281.25
2018-06-19T06:21:50.751Z,219.38
2018-06-19T06:22:50.808Z,225.00
2018-06-19T06:24:43.799Z,241.88
2018-06-19T06:25:43.863Z,258.75
2018-06-19T06:27:37.371Z,264.38
2018-06-19T06:28:37.422Z,275.63
2018-06-19T06:30:30.429Z,315.00
2018-06-19T06:31:30.482Z,298.13
2018-06-19T06:33:23.469Z,298.13
2018-06-19T06:34:23.528Z,331.88
2018-06-19T06:36:16.532Z,371.25
2018-06-19T06:37:16.590Z,388.13
2018-06-19T06:39:09.584Z,376.88
2018-06-19T06:40:09.648Z,331.88
2018-06-19T06:42:02.649Z,326.25
2018-06-19T06:43:02.707Z,348.75
2018-06-19T06:44:55.925Z,348.75
2018-06-19T06:45:55.762Z,376.88
2018-06-19T06:47:48.764Z,360.00
2018-06-19T06:48:48.835Z,388.13
2018-06-19T06:50:41.812Z,405.00
2018-06-19T06:51:41.875Z,433.13
2018-06-19T06:53:34.878Z,466.88
2018-06-19T06:54:34.938Z,551.25
2018-06-19T06:56:27.936Z,427.50
2018-06-19T06:57:27.990Z,399.38
2018-06-19T06:59:20.982Z,461.25
2018-06-19T07:00:21.047Z,495.00
2018-06-19T07:02:14.049Z,545.63
2018-06-19T07:03:14.107Z,540.00
2018-06-19T07:05:07.100Z,556.88
2018-06-19T07:06:07.164Z,534.38
2018-06-19T07:08:00.164Z,455.63
2018-06-19T07:09:00.224Z,438.75
2018-06-19T07:10:53.217Z,472.50
2018-06-19T07:11:53.276Z,483.75
2018-06-19T07:13:46.275Z,461.25
2018-06-19T07:14:46.324Z,478.13
2018-06-19T07:16:39.332Z,444.38
2018-06-19T07:17:39.395Z,444.38
2018-06-19T07:19:32.446Z,450.00
2018-06-19T07:20:32.455Z,438.75
2018-06-19T07:22:25.510Z,348.75
2018-06-19T07:23:25.508Z,405.00
2018-06-19T07:25:18.506Z,450.00
2018-06-19T07:26:18.569Z,416.25
2018-06-19T07:28:12.078Z,399.38
2018-06-19T07:29:12.131Z,410.63
2018-06-19T07:31:05.131Z,433.13
2018-06-19T07:32:05.229Z,444.38
2018-06-19T07:33:58.198Z,354.38
2018-06-19T07:34:58.247Z,354.38
2018-06-19T07:36:51.311Z,416.25
2018-06-19T07:37:51.321Z,483.75
2018-06-19T07:39:44.312Z,540.00
2018-06-19T07:40:44.366Z,568.13
2018-06-19T07:42:37.373Z,534.38
2018-06-19T07:43:37.428Z,511.88
2018-06-19T07:45:30.415Z,534.38
2018-06-19T07:46:30.480Z,534.38
2018-06-19T07:48:23.482Z,528.75
2018-06-19T07:49:23.545Z,545.63
2018-06-19T07:51:16.531Z,624.38
2018-06-19T07:52:16.598Z,663.75
2018-06-19T07:54:09.596Z,579.38
2018-06-19T07:55:09.653Z,551.25
2018-06-19T07:57:02.645Z,601.88
2018-06-19T07:58:02.713Z,618.75
2018-06-19T07:59:55.711Z,562.50
2018-06-19T08:00:55.773Z,596.25
2018-06-19T08:02:48.761Z,545.63
2018-06-19T08:03:48.827Z,562.50
2018-06-19T08:05:41.826Z,528.75
2018-06-19T08:06:41.885Z,551.25
2018-06-19T08:08:34.889Z,765.00
2018-06-19T08:09:34.944Z,697.50
2018-06-19T08:11:27.940Z,708.75
2018-06-19T08:12:28.002Z,736.88
2018-06-19T08:14:21.009Z,663.75
2018-06-19T08:15:21.068Z,601.88
2018-06-19T08:17:14.064Z,646.88
2018-06-19T08:18:14.126Z,607.50
2018-06-19T08:20:07.129Z,573.75
2018-06-19T08:21:07.189Z,534.38
2018-06-19T08:23:00.184Z,495.00
2018-06-19T08:24:00.249Z,478.13
2018-06-19T08:25:53.252Z,607.50
2018-06-19T08:26:53.308Z,545.63
2018-06-19T08:28:46.304Z,433.13
2018-06-19T08:29:46.366Z,427.50
2018-06-19T08:31:39.367Z,568.13
2018-06-19T08:32:39.429Z,607.50
2018-06-19T08:34:32.430Z,624.38
2018-06-19T08:35:32.489Z,675.00
2018-06-19T08:37:25.480Z,630.00
2018-06-19T08:38:25.545Z,652.50
2018-06-19T08:40:18.549Z,675.00
2018-06-19T08:41:18.606Z,675.00
2018-06-19T08:43:11.608Z,804.38
2018-06-19T08:44:11.665Z,663.75
2018-06-19T08:46:04.670Z,641.25
2018-06-19T08:47:04.731Z,601.88
2018-06-19T08:48:57.731Z,725.63
2018-06-19T08:49:57.798Z,883.13
2018-06-19T08:51:50.792Z,753.75
2018-06-19T08:52:50.849Z,720.00
2018-06-19T08:54:43.850Z,669.38
2018-06-19T08:55:43.910Z,736.88
2018-06-19T08:57:36.910Z,793.13
2018-06-19T08:58:36.968Z,849.38
2018-06-19T09:00:29.973Z,680.63
2018-06-19T09:01:30.030Z,624.38
2018-06-19T09:03:23.030Z,708.75
2018-06-19T09:04:23.093Z,916.88
2018-06-19T09:06:16.099Z,776.25
2018-06-19T09:07:16.153Z,742.50
2018-06-19T09:09:09.154Z,579.38
2018-06-19T09:10:09.220Z,534.38
2018-06-19T09:12:02.216Z,500.63
2018-06-19T09:13:02.282Z,511.88
2018-06-19T09:14:55.278Z,573.75
2018-06-19T09:15:55.338Z,607.50
2018-06-19T09:17:48.341Z,686.25
2018-06-19T09:18:48.406Z,731.25
2018-06-19T09:20:41.416Z,742.50
2018-06-19T09:21:41.472Z,770.63
2018-06-19T09:23:34.460Z,776.25
2018-06-19T09:24:34.526Z,708.75
2018-06-19T09:26:27.529Z,641.25
2018-06-19T09:27:27.591Z,607.50
2018-06-19T09:29:20.581Z,585.00
2018-06-19T09:30:20.648Z,669.38
2018-06-19T09:32:13.652Z,781.88
2018-06-19T09:33:13.708Z,652.50
2018-06-19T09:35:06.720Z,585.00
2018-06-19T09:36:06.968Z,596.25
2018-06-19T09:37:59.785Z,528.75
2018-06-19T09:38:59.844Z,551.25
2018-06-19T09:40:52.842Z,635.63
2018-06-19T09:41:52.908Z,601.88
2018-06-19T09:43:45.942Z,483.75
2018-06-19T09:44:45.971Z,450.00
2018-06-19T09:46:38.988Z,551.25
2018-06-19T09:47:39.036Z,641.25
2018-06-19T09:49:32.027Z,534.38
2018-06-19T09:50:32.090Z,506.25
2018-06-19T09:52:25.096Z,517.50
2018-06-19T09:53:25.152Z,478.13
2018-06-19T09:55:18.149Z,495.00
2018-06-19T09:56:18.219Z,506.25
2018-06-19T09:58:11.219Z,472.50
2018-06-19T09:59:11.352Z,421.88
2018-06-19T10:01:04.275Z,393.75
2018-06-19T10:02:04.338Z,444.38
2018-06-19T10:03:57.343Z,421.88
2018-06-19T10:04:57.403Z,466.88
2018-06-19T10:06:50.399Z,433.13
2018-06-19T10:07:50.462Z,399.38
2018-06-19T10:09:43.467Z,416.25
2018-06-19T10:10:43.526Z,511.88
2018-06-19T10:12:36.531Z,489.38
2018-06-19T10:13:36.586Z,500.63
2018-06-19T10:15:29.584Z,483.75
2018-06-19T10:16:29.647Z,450.00
2018-06-19T10:18:22.651Z,568.13
2018-06-19T10:19:22.721Z,590.63
2018-06-19T10:21:15.712Z,556.88
2018-06-19T10:22:15.781Z,630.00
2018-06-19T10:24:08.779Z,562.50
2018-06-19T10:25:08.835Z,545.63
2018-06-19T10:27:01.843Z,601.88
2018-06-19T10:28:01.900Z,585.00
2018-06-19T10:29:54.912Z,472.50
2018-06-19T10:30:54.964Z,421.88
2018-06-19T10:32:47.981Z,466.88
2018-06-19T10:33:48.029Z,506.25
2018-06-19T10:35:41.037Z,472.50
2018-06-19T10:36:41.088Z,478.13
2018-06-19T10:38:34.102Z,444.38
2018-06-19T10:39:34.146Z,427.50
2018-06-19T10:41:27.148Z,461.25
2018-06-19T10:42:27.233Z,444.38
2018-06-19T10:44:20.221Z,405.00
2018-06-19T10:45:20.272Z,405.00
2018-06-19T10:47:13.292Z,450.00
2018-06-19T10:48:13.349Z,410.63
2018-06-19T10:50:06.342Z,427.50
2018-06-19T10:51:06.403Z,478.13
2018-06-19T10:52:59.422Z,573.75
2018-06-19T10:53:59.486Z,641.25
2018-06-19T10:55:52.468Z,680.63
2018-06-19T10:56:52.526Z,573.75
2018-06-19T10:58:45.837Z,703.13
2018-06-19T10:59:45.585Z,793.13
2018-06-19T11:01:38.592Z,686.25
2018-06-19T11:02:38.645Z,601.88
2018-06-19T11:04:31.661Z,540.00
2018-06-19T11:05:31.709Z,528.75
2018-06-19T11:07:24.704Z,613.13
2018-06-19T11:08:24.784Z,528.75
2018-06-19T11:10:17.791Z,399.38
2018-06-19T11:11:17.830Z,393.75
2018-06-19T11:13:10.836Z,393.75
2018-06-19T11:14:10.970Z,421.88
2018-06-19T11:16:03.925Z,438.75
2018-06-19T11:17:03.971Z,534.38
2018-06-19T11:18:56.965Z,697.50
2018-06-19T11:19:57.071Z,697.50
2018-06-19T11:21:50.054Z,894.38
2018-06-19T11:22:50.098Z,928.13
2018-06-19T11:24:43.096Z,973.13
2018-06-19T11:25:43.174Z,995.63
2018-06-19T11:27:36.163Z,720.00
2018-06-19T11:28:36.216Z,787.50
2018-06-19T11:30:29.223Z,990.00
2018-06-19T11:31:29.284Z,905.63
2018-06-19T11:33:22.277Z,736.88
2018-06-19T11:34:22.348Z,720.00
2018-06-19T11:36:15.347Z,562.50
2018-06-19T11:37:15.419Z,669.38
2018-06-19T11:39:08.411Z,686.25
2018-06-19T11:40:08.470Z,725.63
2018-06-19T11:42:01.499Z,759.38
2018-06-19T11:43:01.547Z,731.25
2018-06-19T11:44:54.545Z,1091.25
2018-06-19T11:45:54.610Z,1080.00
2018-06-19T11:47:47.618Z,826.88
2018-06-19T11:48:47.680Z,759.38
2018-06-19T11:50:40.690Z,911.25
2018-06-19T11:51:40.803Z,978.75
2018-06-19T11:53:33.755Z,978.75
2018-06-19T11:54:33.934Z,1012.50
2018-06-19T11:56:26.821Z,928.13
2018-06-19T11:57:26.922Z,815.63
2018-06-19T11:59:19.886Z,815.63
2018-06-19T12:00:19.954Z,680.63
2018-06-19T12:02:12.954Z,455.63
2018-06-19T12:03:13.017Z,416.25
2018-06-19T12:05:06.019Z,703.13
2018-06-19T12:06:06.079Z,855.00
2018-06-19T12:07:59.083Z,995.63
2018-06-19T12:08:59.146Z,1057.50
2018-06-19T12:10:52.162Z,950.63
2018-06-19T12:11:52.211Z,826.88
2018-06-19T12:13:45.216Z,714.38
2018-06-19T12:14:45.282Z,590.63
2018-06-19T12:16:38.280Z,630.00
2018-06-19T12:17:38.339Z,545.63
2018-06-19T12:19:31.345Z,438.75
2018-06-19T12:20:31.408Z,399.38
2018-06-19T12:22:24.412Z,545.63
2018-06-19T12:23:24.475Z,691.88
2018-06-19T12:25:17.473Z,928.13
2018-06-19T12:26:17.542Z,961.88
2018-06-19T12:28:11.052Z,945.00
2018-06-19T12:29:11.114Z,922.50
2018-06-19T12:31:04.113Z,984.38
2018-06-19T12:32:04.179Z,967.50
2018-06-19T12:33:57.185Z,933.75
2018-06-19T12:34:57.244Z,866.25
2018-06-19T12:36:50.252Z,770.63
2018-06-19T12:37:50.309Z,691.88
2018-06-19T12:39:43.311Z,523.13
2018-06-19T12:40:43.373Z,528.75
2018-06-19T12:42:36.384Z,624.38
2018-06-19T12:43:36.441Z,652.50
2018-06-19T12:45:29.445Z,708.75
2018-06-19T12:46:29.507Z,810.00
2018-06-19T12:48:22.512Z,753.75
2018-06-19T12:49:22.573Z,714.38
2018-06-19T12:51:16.071Z,810.00
2018-06-19T12:52:16.138Z,810.00
2018-06-19T12:54:09.141Z,810.00
2018-06-19T12:55:09.456Z,815.63
2018-06-19T12:57:02.209Z,888.75
2018-06-19T12:58:02.272Z,933.75
2018-06-19T12:59:55.782Z,939.38
2018-06-19T13:00:55.844Z,928.13
2018-06-19T13:02:48.845Z,849.38
2018-06-19T13:03:48.901Z,821.25
2018-06-19T13:05:41.901Z,759.38
2018-06-19T13:06:41.969Z,725.63
2018-06-19T13:08:34.978Z,680.63
2018-06-19T13:09:35.039Z,675.00
2018-06-19T13:11:28.041Z,680.63
2018-06-19T13:12:28.106Z,720.00
2018-06-19T13:14:21.124Z,714.38
2018-06-19T13:15:21.180Z,770.63
2018-06-19T13:17:14.182Z,815.63
2018-06-19T13:18:14.246Z,793.13
2018-06-19T13:20:07.251Z,703.13
2018-06-19T13:21:07.315Z,669.38
2018-06-19T13:23:00.338Z,691.88
2018-06-19T13:24:00.388Z,708.75
2018-06-19T13:25:53.392Z,658.13
2018-06-19T13:26:53.456Z,686.25
2018-06-19T13:28:46.977Z,686.25
2018-06-19T13:29:47.031Z,663.75
2018-06-19T13:31:40.034Z,540.00
2018-06-19T13:32:40.099Z,455.63
2018-06-19T13:34:33.108Z,360.00
2018-06-19T13:35:33.171Z,399.38
2018-06-19T13:37:26.167Z,759.38
2018-06-19T13:38:26.235Z,798.75
2018-06-19T13:40:19.266Z,855.00
2018-06-19T13:41:19.305Z,871.88
2018-06-19T13:43:12.314Z,826.88
2018-06-19T13:44:12.375Z,855.00
2018-06-19T13:46:05.373Z,866.25
2018-06-19T13:47:05.442Z,900.00
2018-06-19T13:48:58.456Z,855.00
2018-06-19T13:49:58.511Z,826.88
2018-06-19T13:51:51.517Z,826.88
2018-06-19T13:52:51.586Z,843.75
2018-06-19T13:54:44.589Z,838.13
2018-06-19T13:55:44.652Z,832.50
2018-06-19T13:57:37.656Z,759.38
2018-06-19T13:58:37.718Z,731.25
2018-06-19T14:00:30.727Z,753.75
2018-06-19T14:01:30.788Z,742.50
2018-06-19T14:03:23.793Z,618.75
2018-06-19T14:04:23.858Z,545.63
2018-06-19T14:06:16.886Z,444.38
2018-06-19T14:07:16.947Z,410.63
2018-06-19T14:09:09.945Z,405.00
2018-06-19T14:10:09.997Z,376.88
2018-06-19T14:12:02.995Z,303.75
2018-06-19T14:13:03.066Z,286.88
2018-06-19T14:14:56.094Z,230.63
2018-06-19T14:15:56.147Z,202.50
2018-06-19T14:17:49.191Z,151.88
2018-06-19T14:18:49.219Z,112.50
2018-06-19T14:20:42.254Z,95.63
2018-06-19T14:21:42.312Z,90.00
2018-06-19T14:23:35.311Z,73.13
2018-06-19T14:24:35.380Z,84.38
2018-06-19T14:26:28.378Z,135.00
2018-06-19T14:27:28.438Z,157.50
2018-06-19T14:29:21.442Z,157.50
2018-06-19T14:30:21.505Z,157.50
2018-06-19T14:32:14.512Z,180.00
2018-06-19T14:33:14.571Z,191.25
2018-06-19T14:35:07.578Z,202.50
2018-06-19T14:36:07.636Z,219.38
2018-06-19T14:38:00.630Z,236.25
2018-06-19T14:39:00.752Z,247.50
2018-06-19T14:40:53.706Z,309.38
2018-06-19T14:41:53.768Z,343.13
2018-06-19T14:43:46.764Z,371.25
2018-06-19T14:44:46.831Z,331.88
2018-06-19T14:46:39.872Z,253.13
2018-06-19T14:47:39.895Z,202.50
2018-06-19T14:49:32.891Z,163.13
2018-06-19T14:50:32.958Z,185.63
2018-06-19T14:52:25.973Z,298.13
2018-06-19T14:53:26.030Z,354.38
2018-06-19T14:55:19.037Z,331.88
2018-06-19T14:56:19.090Z,286.88
2018-06-19T14:58:12.094Z,247.50
2018-06-19T14:59:12.165Z,230.63
2018-06-19T15:01:05.167Z,213.75
2018-06-19T15:02:05.228Z,219.38
2018-06-19T15:03:58.224Z,236.25
2018-06-19T15:04:58.289Z,236.25
2018-06-19T15:06:51.294Z,241.88
2018-06-19T15:07:51.353Z,241.88
2018-06-19T15:09:44.353Z,230.63
2018-06-19T15:10:44.417Z,236.25
2018-06-19T15:12:37.422Z,236.25
2018-06-19T15:13:37.482Z,241.88
2018-06-19T15:15:30.482Z,264.38
2018-06-19T15:16:30.550Z,275.63
2018-06-19T15:18:23.597Z,309.38
2018-06-19T15:19:23.610Z,337.50
2018-06-19T15:21:16.616Z,388.13
2018-06-19T15:22:16.676Z,405.00
2018-06-19T15:24:09.701Z,433.13
2018-06-19T15:25:09.865Z,450.00
2018-06-19T15:27:02.746Z,461.25
2018-06-19T15:28:02.805Z,472.50
2018-06-19T15:29:55.809Z,489.38
2018-06-19T15:30:55.876Z,500.63
2018-06-19T15:32:48.883Z,495.00
2018-06-19T15:33:48.946Z,466.88
2018-06-19T15:35:41.944Z,371.25
2018-06-19T15:36:42.010Z,303.75
2018-06-19T15:38:35.019Z,225.00
2018-06-19T15:39:35.084Z,191.25
2018-06-19T15:41:28.098Z,123.75
2018-06-19T15:42:28.142Z,106.88
2018-06-19T15:44:21.139Z,95.63
2018-06-19T15:45:21.205Z,90.00
2018-06-19T15:47:14.214Z,67.50
2018-06-19T15:48:14.273Z,50.63
2018-06-19T15:50:07.274Z,39.38
2018-06-19T15:51:07.347Z,45.00
2018-06-19T15:53:00.344Z,56.25
2018-06-19T15:54:00.404Z,61.88
2018-06-19T15:55:53.407Z,78.75
2018-06-19T15:56:53.465Z,84.38
2018-06-19T15:58:46.474Z,95.63
2018-06-19T15:59:46.534Z,95.63
2018-06-19T16:01:39.537Z,106.88
2018-06-19T16:02:39.601Z,118.13
2018-06-19T16:04:32.604Z,140.63
2018-06-19T16:05:32.665Z,157.50
2018-06-19T16:07:25.694Z,180.00
2018-06-19T16:08:25.759Z,208.13
2018-06-19T16:10:18.752Z,292.50
2018-06-19T16:11:18.822Z,315.00
2018-06-19T16:13:11.832Z,320.63
2018-06-19T16:14:11.881Z,309.38
2018-06-19T16:16:04.879Z,286.88
2018-06-19T16:17:04.949Z,275.63
2018-06-19T16:18:57.948Z,264.38
2018-06-19T16:19:58.017Z,258.75
2018-06-19T16:21:51.012Z,264.38
2018-06-19T16:22:51.079Z,247.50
2018-06-19T16:24:44.088Z,241.88
2018-06-19T16:25:44.168Z,236.25
2018-06-19T16:27:37.211Z,230.63
2018-06-19T16:28:37.208Z,219.38
2018-06-19T16:30:30.213Z,208.13
2018-06-19T16:31:30.272Z,219.38
2018-06-19T16:33:23.277Z,241.88
2018-06-19T16:34:23.337Z,258.75
2018-06-19T16:36:16.339Z,270.00
2018-06-19T16:37:16.409Z,270.00
2018-06-19T16:39:09.409Z,275.63
2018-06-19T16:40:09.475Z,292.50
2018-06-19T16:42:02.466Z,286.88
2018-06-19T16:43:02.542Z,281.25
2018-06-19T16:44:55.550Z,275.63
2018-06-19T16:45:55.603Z,264.38
2018-06-19T16:47:48.603Z,219.38
2018-06-19T16:48:48.663Z,219.38
2018-06-19T16:50:41.670Z,219.38
2018-06-19T16:51:41.725Z,208.13
2018-06-19T16:53:34.745Z,202.50
2018-06-19T16:54:34.819Z,208.13
2018-06-19T16:56:27.811Z,202.50
2018-06-19T16:57:27.878Z,202.50
2018-06-19T16:59:20.881Z,202.50
2018-06-19T17:00:20.941Z,196.88
2018-06-19T17:02:13.938Z,196.88
2018-06-19T17:03:14.025Z,191.25
2018-06-19T17:05:07.005Z,180.00
2018-06-19T17:06:07.067Z,174.38
2018-06-19T17:08:00.064Z,174.38
2018-06-19T17:09:00.130Z,168.75
2018-06-19T17:10:53.149Z,168.75
2018-06-19T17:11:53.208Z,163.13
2018-06-19T17:13:46.234Z,163.13
2018-06-19T17:14:46.283Z,168.75
2018-06-19T17:16:39.784Z,174.38
2018-06-19T17:17:39.841Z,174.38
2018-06-19T17:19:32.847Z,168.75
2018-06-19T17:20:32.905Z,168.75
2018-06-19T17:22:25.905Z,168.75
2018-06-19T17:23:25.969Z,163.13
2018-06-19T17:25:18.986Z,157.50
2018-06-19T17:26:19.035Z,163.13
2018-06-19T17:28:12.033Z,163.13
2018-06-19T17:29:12.092Z,163.13
2018-06-19T17:31:05.099Z,168.75
2018-06-19T17:32:05.159Z,168.75
2018-06-19T17:33:58.161Z,168.75
2018-06-19T17:34:58.220Z,168.75
2018-06-19T17:36:51.236Z,163.13
2018-06-19T17:37:51.289Z,157.50
2018-06-19T17:39:44.287Z,140.63
2018-06-19T17:40:44.414Z,146.25
2018-06-19T17:42:37.361Z,129.38
2018-06-19T17:43:37.418Z,123.75
2018-06-19T17:45:30.428Z,112.50
2018-06-19T17:46:30.483Z,101.25
2018-06-19T17:48:23.487Z,101.25
2018-06-19T17:49:23.549Z,106.88
2018-06-19T17:51:16.568Z,118.13
2018-06-19T17:52:16.673Z,118.13
2018-06-19T17:54:09.622Z,112.50
2018-06-19T17:55:09.693Z,118.13
2018-06-19T17:57:02.699Z,129.38
2018-06-19T17:58:02.754Z,135.00
2018-06-19T17:59:55.780Z,151.88
2018-06-19T18:00:55.836Z,157.50
2018-06-19T18:02:48.848Z,157.50
2018-06-19T18:03:48.909Z,157.50
2018-06-19T18:05:41.928Z,151.88
2018-06-19T18:06:41.973Z,151.88
2018-06-19T18:08:34.984Z,157.50
2018-06-19T18:09:35.048Z,157.50
2018-06-19T18:11:28.075Z,157.50
2018-06-19T18:12:28.134Z,151.88
2018-06-19T18:14:21.133Z,146.25
2018-06-19T18:15:21.202Z,140.63
2018-06-19T18:17:14.201Z,140.63